Time;durP1;ratioP1;P1;durP2;ratioP2;P2;SDS_P1;SDS_P2;PMS_P1;PMS_P2;Temp;Humidity;BMP_temperature;BMP_pressure;BME280_temperature;BME280_humidity;BME280_pressure;Samples;Min_cycle;Max_cycle;Signal;HPM_P1;HPM_P2
2022/12/08 00:01:33;;;;;;;0.85;0.85;;;;;;;3.01;100.00;100803.19;5058507;28;20033;-81
2022/12/08 00:04:00;;;;;;;1.10;0.73;;;;;;;3.00;100.00;100782.41;5059631;28;20032;-81
2022/12/08 00:09:29;;;;;;;0.77;0.75;;;;;;;2.90;100.00;100769.16;5060165;28;20047;-81
2022/12/08 00:12:00;;;;;;;0.88;0.88;;;;;;;2.91;100.00;100764.78;5059712;28;20049;-81
2022/12/08 00:14:33;;;;;;;;;;;;;;;2.86;100.00;100765.09;5060260;28;20500;-81
2022/12/08 00:16:59;;;;;;;0.57;0.52;;;;;;;2.78;100.00;100747.34;5059596;28;20481;-81
2022/12/08 00:19:26;;;;;;;0.73;0.73;;;;;;;2.83;100.00;100760.06;5058678;28;20031;-81
2022/12/08 00:21:52;;;;;;;1.08;1.08;;;;;;;2.71;100.00;100759.13;5059383;28;20025;-81
2022/12/08 00:24:19;;;;;;;0.80;0.77;;;;;;;2.60;100.00;100743.38;5059404;28;20069;-81
2022/12/08 00:26:45;;;;;;;1.38;1.27;;;;;;;2.75;100.00;100754.56;5041901;28;20063;-81
2022/12/08 00:29:11;;;;;;;0.95;0.95;;;;;;;2.75;100.00;100746.75;5064183;28;20025;-81
2022/12/08 00:31:37;;;;;;;1.00;1.00;;;;;;;2.58;100.00;100729.59;5059111;28;20029;-81
2022/12/08 00:34:03;;;;;;;1.08;1.02;;;;;;;2.55;100.00;100748.88;5059659;28;20087;-81
2022/12/08 00:36:29;;;;;;;1.80;1.70;;;;;;;2.21;100.00;100708.56;5060087;28;20049;-81
2022/12/08 00:38:55;;;;;;;1.45;1.35;;;;;;;2.35;100.00;100723.28;5058938;28;20124;-81
2022/12/08 00:44:09;;;;;;;1.45;1.35;;;;;;;2.16;100.00;100716.69;5060997;28;20515;-81
2022/12/08 00:46:34;;;;;;;3.75;1.38;;;;;;;2.23;100.00;100717.13;5059529;28;20114;-81
2022/12/08 00:49:00;;;;;;;1.63;1.52;;;;;;;2.26;100.00;100712.56;5042614;28;20158;-81
2022/12/08 00:51:26;;;;;;;1.80;1.70;;;;;;;2.24;100.00;100687.53;5057558;28;20025;-81
2022/12/08 00:53:51;;;;;;;3.33;3.20;;;;;;;2.34;100.00;100716.44;5059300;28;20041;-82
2022/12/08 00:56:16;;;;;;;3.22;3.13;;;;;;;2.05;100.00;100677.50;5057419;28;20071;-82
2022/12/08 00:58:42;;;;;;;2.28;2.17;;;;;;;2.28;100.00;100719.41;5064358;28;20040;-82
2022/12/08 01:01:12;;;;;;;3.58;3.42;;;;;;;2.26;100.00;100704.75;5058943;28;20037;-81
2022/12/08 01:03:38;;;;;;;3.03;2.92;;;;;;;2.29;100.00;100702.84;5059751;28;20032;-81
2022/12/08 01:06:04;;;;;;;2.78;2.67;;;;;;;2.31;100.00;100695.78;5041726;28;20028;-81
2022/12/08 01:08:30;;;;;;;2.80;2.70;;;;;;;2.43;100.00;100716.63;5058515;28;20032;-81
2022/12/08 01:10:55;;;;;;;4.28;4.07;;;;;;;2.64;100.00;100740.47;5040239;28;20087;-83
2022/12/08 01:13:21;;;;;;;4.05;3.85;;;;;;;2.62;100.00;100734.50;5058288;28;20028;-83
2022/12/08 01:15:46;;;;;;;2.80;2.70;;;;;;;2.76;100.00;100743.19;5058346;28;20036;-81
2022/12/08 01:18:11;;;;;;;2.83;2.72;;;;;;;2.84;100.00;100744.34;5057739;28;20040;-82
2022/12/08 01:20:37;;;;;;;2.75;2.65;;;;;;;2.80;100.00;100734.22;5056226;28;20068;-82
2022/12/08 01:23:02;;;;;;;3.83;2.95;;;;;;;2.85;100.00;100735.59;5057024;28;20032;-82
2022/12/08 01:25:27;;;;;;;2.40;2.30;;;;;;;3.03;100.00;100750.94;5058322;28;20083;-82
2022/12/08 01:27:53;;;;;;;1.73;1.63;;;;;;;3.03;100.00;100750.94;5040386;28;20177;-81
2022/12/08 01:30:19;;;;;;;1.80;1.70;;;;;;;2.97;100.00;100736.53;5058381;28;20541;-81
2022/12/08 01:32:44;;;;;;;1.45;1.35;;;;;;;3.01;100.00;100731.94;5056209;28;20052;-82
2022/12/08 01:35:10;;;;;;;1.48;1.40;;;;;;;3.12;100.00;100750.31;5039918;28;20048;-82
2022/12/08 01:37:35;;;;;;;1.88;1.65;;;;;;;3.11;100.00;100746.00;5058895;28;20029;-82
2022/12/08 01:40:01;;;;;;;1.55;1.45;;;;;;;3.12;100.00;100739.88;5056999;28;20060;-82
2022/12/08 01:42:26;;;;;;;0.85;0.85;;;;;;;3.14;100.00;100747.59;5057266;28;20033;-82
2022/12/08 01:44:57;;;;;;;0.88;0.82;;;;;;;3.02;100.00;100729.22;5058009;28;20488;-82
2022/12/08 01:47:24;;;;;;;;;;;;;;;3.11;100.00;100748.63;5057526;28;20107;-81
2022/12/08 01:49:50;;;;;;;0.32;0.32;;;;;;;3.09;100.00;100737.47;5056534;28;19920;-81
2022/12/08 01:52:32;;;;;;;0.55;0.40;;;;;;;2.96;100.00;100726.19;5057420;28;20040;-82
2022/12/08 01:55:14;;;;;;;0.82;0.60;;;;;;;2.91;100.00;100725.69;5056751;28;20565;-81
2022/12/08 01:57:49;;;;;;;0.32;0.32;;;;;;;2.82;100.00;100711.50;5064149;28;20044;-82
2022/12/08 02:00:17;;;;;;;0.60;0.60;;;;;;;2.85;100.00;100712.13;5057297;28;20083;-81
2022/12/08 02:03:07;;;;;;;0.40;0.35;;;;;;;2.87;100.00;100719.84;5073184;28;20051;-82
2022/12/08 02:05:36;;;;;;;5.68;0.65;;;;;;;2.77;100.00;100693.56;5056569;28;20020;-81
2022/12/08 02:08:06;;;;;;;8.18;0.70;;;;;;;2.81;100.00;100695.03;5057545;28;20112;-80
2022/12/08 02:10:35;;;;;;;1.17;0.70;;;;;;;2.87;100.00;100697.22;5058802;28;20033;-80
2022/12/08 02:13:03;;;;;;;0.45;0.40;;;;;;;2.67;100.00;100676.88;5056581;28;20025;-82
2022/12/08 02:15:41;;;;;;;0.50;0.40;;;;;;;2.66;100.00;100680.44;5057439;28;20021;-82
2022/12/08 02:18:27;;;;;;;0.82;0.65;;;;;;;2.71;100.00;100686.16;5058885;28;20039;-82
2022/12/08 02:20:52;;;;;;;0.50;0.47;;;;;;;2.77;100.00;100688.34;5055147;28;20048;-82
2022/12/08 02:24:01;;;;;;;0.40;0.40;;;;;;;2.60;100.00;100679.06;5058035;28;20032;-81
2022/12/08 02:26:35;;;;;;;0.45;0.38;;;;;;;2.56;100.00;100672.38;5047074;28;20040;-81
2022/12/08 02:29:21;;;;;;;0.60;0.55;;;;;;;2.41;100.00;100661.19;5057073;28;20612;-81
2022/12/08 02:31:58;;;;;;;0.63;0.63;;;;;;;2.40;100.00;100659.56;5065187;28;20029;-81
2022/12/08 02:34:45;;;;;;;0.93;0.93;;;;;;;2.26;100.00;100657.00;5059983;28;20025;-81
2022/12/08 02:37:28;;;;;;;1.10;0.93;;;;;;;2.05;100.00;100623.66;5059268;28;20142;-81
2022/12/08 02:40:17;;;;;;;1.05;1.05;;;;;;;2.09;100.00;100649.47;5059910;28;20546;-82
2022/12/08 02:42:45;;;;;;;1.58;1.50;;;;;;;1.96;100.00;100626.88;5062014;28;20241;-80
2022/12/08 02:45:24;;;;;;;2.08;1.98;;;;;;;2.02;100.00;100654.25;5061171;28;20098;-81
2022/12/08 02:47:51;;;;;;;1.80;1.70;;;;;;;2.17;100.00;100652.41;5061336;28;20029;-81
2022/12/08 02:50:18;;;;;;;2.58;2.47;;;;;;;2.06;100.00;100635.72;5044633;28;20024;-82
2022/12/08 02:52:45;;;;;;;2.70;2.60;;;;;;;2.30;100.00;100666.28;5067160;28;20064;-82
2022/12/08 02:55:37;;;;;;;2.75;2.65;;;;;;;2.39;100.00;100667.47;5061783;28;20030;-82
2022/12/08 02:58:19;;;;;;;;;;;;;;;2.44;100.00;100666.22;5061914;28;20579;-81
2022/12/08 03:01:06;;;;;;;0.98;0.98;;;;;;;2.44;100.00;100668.84;5060769;28;19920;-81
2022/12/08 03:03:51;;;;;;;2.13;1.73;;;;;;;2.41;100.00;100663.81;5060165;28;20032;-81
2022/12/08 03:06:38;;;;;;;2.15;2.05;;;;;;;2.57;100.00;100683.63;5060862;28;20082;-82
2022/12/08 03:09:16;;;;;;;2.60;2.50;;;;;;;2.66;100.00;100696.06;5061726;28;20027;-82
2022/12/08 03:12:00;;;;;;;2.42;2.33;;;;;;;2.64;100.00;100690.13;5060063;28;20047;-82
2022/12/08 03:14:28;;;;;;;6.68;2.50;;;;;;;2.65;100.00;100686.56;5060211;28;20104;-82
2022/12/08 03:16:57;;;;;;;2.20;2.10;;;;;;;2.78;100.00;100679.59;5061954;28;20380;-81
2022/12/08 03:19:27;;;;;;;2.67;2.58;;;;;;;2.92;100.00;100691.69;5060692;28;20029;-81
2022/12/08 03:22:02;;;;;;;2.47;2.38;;;;;;;2.86;100.00;100673.88;5060641;28;20082;-81
2022/12/08 03:24:31;;;;;;;1.55;1.45;;;;;;;2.95;100.00;100685.44;5059388;28;20032;-81
2022/12/08 03:27:02;;;;;;;1.67;1.58;;;;;;;2.85;100.00;100653.94;5060125;28;20028;-80
2022/12/08 03:29:29;;;;;;;1.45;1.35;;;;;;;2.77;100.00;100654.47;5060088;28;20038;-81
2022/12/08 03:31:58;;;;;;;1.13;1.13;;;;;;;2.82;100.00;100654.16;5059314;28;20029;-81
2022/12/08 03:34:27;;;;;;;1.42;1.33;;;;;;;2.67;100.00;100619.53;5067254;28;20024;-81
2022/12/08 03:36:53;;;;;;;1.00;1.00;;;;;;;2.57;100.00;100619.34;5057667;28;20028;-81
2022/12/08 03:39:18;;;;;;;0.90;0.90;;;;;;;2.47;100.00;100607.88;5059050;28;20567;-82
2022/12/08 03:41:45;;;;;;;0.98;0.93;;;;;;;2.60;100.00;100631.34;5043156;28;20115;-81
2022/12/08 03:44:10;;;;;;;0.90;0.90;;;;;;;2.66;100.00;100633.53;5059075;28;20033;-81
2022/12/08 03:46:35;;;;;;;0.88;0.88;;;;;;;2.46;100.00;100617.47;5060706;28;20036;-81
2022/12/08 03:49:01;;;;;;;0.90;0.90;;;;;;;2.57;100.00;100624.56;5026433;28;20036;-81
2022/12/08 03:51:26;;;;;;;0.80;0.77;;;;;;;2.34;100.00;100615.69;5058499;28;20109;-81
2022/12/08 03:53:52;;;;;;;1.30;0.77;;;;;;;2.47;100.00;100628.72;5042570;28;20032;-82
2022/12/08 03:56:27;;;;;;;0.93;0.93;;;;;;;2.32;100.00;100614.94;5059036;28;20033;-81
2022/12/08 03:58:53;;;;;;;1.10;1.10;;;;;;;2.41;100.00;100629.94;5068455;28;20111;-81
2022/12/08 04:01:19;;;;;;;1.10;1.00;;;;;;;2.41;100.00;100618.69;5060394;28;20055;-80
2022/12/08 04:03:45;;;;;;;1.02;1.02;;;;;;;2.47;100.00;100624.34;5050698;28;20029;-81
2022/12/08 04:06:10;;;;;;;1.00;1.00;;;;;;;2.57;100.00;100632.38;5060100;28;20059;-80
2022/12/08 04:08:36;;;;;;;0.93;0.93;;;;;;;2.35;100.00;100624.31;5060650;28;20061;-81
2022/12/08 04:11:01;;;;;;;1.33;0.93;;;;;;;2.03;100.00;100603.88;5060768;28;20021;-81
2022/12/08 04:13:27;;;;;;;1.00;1.00;;;;;;;2.24;100.00;100625.03;5041368;28;20139;-80
2022/12/08 04:15:52;;;;;;;1.13;1.13;;;;;;;2.37;100.00;100623.28;5058683;28;20033;-80
2022/12/08 04:18:17;;;;;;;1.17;1.17;;;;;;;2.35;100.00;100608.69;5058440;28;20060;-81
2022/12/08 04:20:44;;;;;;;1.52;1.42;;;;;;;2.41;100.00;100598.69;5025964;28;20040;-81
2022/12/08 04:23:11;;;;;;;1.88;1.63;;;;;;;2.62;100.00;100619.03;5058479;28;20029;-81
2022/12/08 04:25:37;;;;;;;1.50;1.42;;;;;;;2.59;100.00;100609.66;5058887;28;20485;-81
2022/12/08 04:28:04;;;;;;;1.58;1.48;;;;;;;2.75;100.00;100630.28;5060429;28;20028;-82
2022/12/08 04:30:32;;;;;;;1.75;1.65;;;;;;;2.64;100.00;100609.34;5065424;28;20036;-81
2022/12/08 04:32:57;;;;;;;1.70;1.60;;;;;;;2.57;100.00;100597.66;5058534;28;20024;-82
2022/12/08 04:35:23;;;;;;;1.33;1.25;;;;;;;2.76;100.00;100631.13;5058239;28;20841;-81
2022/12/08 04:37:48;;;;;;;1.58;1.48;;;;;;;2.76;100.00;100634.53;5058534;28;20150;-80
2022/12/08 04:40:14;;;;;;;1.38;1.33;;;;;;;2.79;100.00;100628.31;5057946;28;20032;-81
2022/12/08 04:42:39;;;;;;;1.15;1.15;;;;;;;2.73;100.00;100619.13;5058508;28;20082;-82
2022/12/08 04:45:05;;;;;;;0.98;0.98;;;;;;;2.74;100.00;100620.78;5055550;28;20028;-81
2022/12/08 04:47:31;;;;;;;1.33;1.27;;;;;;;2.84;100.00;100642.69;5044079;28;20424;-81
2022/12/08 04:49:56;;;;;;;0.77;0.77;;;;;;;2.83;100.00;100624.53;5042797;28;20024;-81
2022/12/08 04:52:21;;;;;;;0.80;0.80;;;;;;;2.94;100.00;100642.03;5039667;28;20082;-81
2022/12/08 04:54:47;;;;;;;0.80;0.80;;;;;;;2.96;100.00;100630.59;5059448;28;20400;-81
2022/12/08 04:57:12;;;;;;;0.63;0.63;;;;;;;3.01;100.00;100633.72;5065482;28;20028;-82
2022/12/08 04:59:38;;;;;;;0.63;0.63;;;;;;;3.01;100.00;100622.44;5059996;28;20034;-82
2022/12/08 05:02:03;;;;;;;0.60;0.60;;;;;;;3.06;100.00;100617.75;5041901;28;20037;-82
2022/12/08 05:04:29;;;;;;;0.60;0.60;;;;;;;3.04;100.00;100622.22;5059027;28;20052;-82
2022/12/08 05:06:54;;;;;;;0.60;0.60;;;;;;;3.06;100.00;100620.34;5041975;28;20074;-81
2022/12/08 05:09:20;;;;;;;0.47;0.43;;;;;;;3.01;100.00;100604.19;5049393;28;20108;-81
2022/12/08 05:11:45;;;;;;;0.60;0.50;;;;;;;2.95;100.00;100591.59;5057085;28;20036;-81
2022/12/08 05:14:12;;;;;;;0.52;0.43;;;;;;;3.07;100.00;100602.00;5058995;28;20063;-81
2022/12/08 05:16:38;;;;;;;0.50;0.40;;;;;;;2.96;100.00;100585.41;5058380;28;20029;-83
2022/12/08 05:19:04;;;;;;;0.40;0.40;;;;;;;2.89;100.00;100588.44;5026598;28;20037;-82
2022/12/08 05:21:30;;;;;;;0.45;0.45;;;;;;;2.76;100.00;100569.41;5059394;28;20034;-82
2022/12/08 05:23:55;;;;;;;0.40;0.40;;;;;;;2.77;100.00;100563.25;5042464;28;20037;-82
2022/12/08 05:26:20;;;;;;;0.60;0.50;;;;;;;2.89;100.00;100579.81;5056076;28;20116;-82
2022/12/08 05:28:46;;;;;;;0.60;0.43;;;;;;;2.89;100.00;100575.41;5040715;28;20051;-82
2022/12/08 05:31:12;;;;;;;0.52;0.45;;;;;;;2.86;100.00;100553.97;5024034;28;20094;-82
2022/12/08 05:33:38;;;;;;;0.50;0.40;;;;;;;2.73;100.00;100551.38;5041462;28;20037;-82
2022/12/08 05:36:04;;;;;;;0.43;0.43;;;;;;;2.93;100.00;100586.47;5041140;28;20070;-82
2022/12/08 05:38:29;;;;;;;0.55;0.40;;;;;;;2.87;100.00;100595.56;5056639;28;20028;-82
2022/12/08 05:40:55;;;;;;;0.40;0.38;;;;;;;2.76;100.00;100577.22;5057021;28;20120;-82
2022/12/08 05:43:22;;;;;;;0.43;0.43;;;;;;;2.65;100.00;100562.31;5024615;28;20029;-82
2022/12/08 05:45:47;;;;;;;0.40;0.40;;;;;;;2.63;100.00;100569.41;5043786;28;20040;-82
2022/12/08 05:48:13;;;;;;;0.50;0.50;;;;;;;2.67;100.00;100588.28;5057829;28;20392;-82
2022/12/08 05:50:38;;;;;;;1.10;0.90;;;;;;;2.37;100.00;100560.75;5042122;28;20029;-82
2022/12/08 05:53:04;;;;;;;1.02;0.50;;;;;;;2.24;100.00;100560.78;5024507;28;20060;-82
2022/12/08 05:55:29;;;;;;;0.80;0.50;;;;;;;2.04;100.00;100550.88;5039416;28;20107;-82
2022/12/08 05:57:55;;;;;;;1.95;1.40;;;;;;;1.93;100.00;100556.78;5065444;28;20029;-83
2022/12/08 06:00:20;;;;;;;0.50;0.50;;;;;;;1.63;100.00;100544.00;5057637;28;20036;-83
2022/12/08 06:02:46;;;;;;;0.40;0.40;;;;;;;1.67;100.00;100568.06;5057379;28;20082;-82
2022/12/08 06:05:11;;;;;;;0.50;0.50;;;;;;;1.71;100.00;100566.94;5041452;28;20089;-82
2022/12/08 06:07:37;;;;;;;1.63;0.82;;;;;;;1.78;100.00;100582.03;5033122;28;20025;-83
2022/12/08 06:10:03;;;;;;;0.93;0.93;;;;;;;1.83;100.00;100586.97;5068385;28;21054;-82
2022/12/08 06:12:29;;;;;;;1.33;1.23;;;;;;;1.77;100.00;100576.94;5069533;28;20461;-82
2022/12/08 06:14:54;;;;;;;1.38;1.27;;;;;;;1.61;100.00;100557.13;5062062;28;20025;-83
2022/12/08 06:17:20;;;;;;;1.25;1.23;;;;;;;1.58;100.00;100582.50;5061148;28;20051;-82
2022/12/08 06:19:45;;;;;;;1.38;1.30;;;;;;;1.57;100.00;100576.47;5061647;28;20032;-83
2022/12/08 06:22:11;;;;;;;1.58;1.50;;;;;;;1.52;100.00;100577.69;5062176;28;20032;-81
2022/12/08 06:24:36;;;;;;;1.55;1.48;;;;;;;1.51;100.00;100561.25;5061849;28;20127;-81
2022/12/08 06:27:01;;;;;;;1.33;1.27;;;;;;;1.52;100.00;100585.50;5061848;28;20032;-82
2022/12/08 06:29:27;;;;;;;1.75;1.65;;;;;;;1.50;100.00;100589.97;5061473;28;20557;-79
2022/12/08 06:31:52;;;;;;;1.25;1.20;;;;;;;1.45;100.00;100582.44;5058669;28;20025;-81
2022/12/08 06:34:17;;;;;;;1.77;1.67;;;;;;;1.36;100.00;100573.47;5059123;28;20032;-81
2022/12/08 06:36:43;;;;;;;1.85;1.75;;;;;;;1.49;100.00;100583.09;5042846;28;20128;-81
2022/12/08 06:39:09;;;;;;;2.25;1.92;;;;;;;1.48;100.00;100569.28;5062126;28;20035;-82
2022/12/08 06:42:42;;;;;;;2.08;1.98;;;;;;;1.45;100.00;100585.06;5062308;28;20747;-82
2022/12/08 06:44:20;;;;;;;1.75;1.65;;;;;;;1.59;100.00;100592.81;5059897;28;20105;-80
2022/12/08 06:46:45;;;;;;;2.10;2.00;;;;;;;1.47;100.00;100579.75;5044913;28;20029;-80
2022/12/08 06:49:11;;;;;;;5.35;2.25;;;;;;;1.50;100.00;100582.97;5041342;28;20032;-80
2022/12/08 06:51:36;;;;;;;4.43;4.22;;;;;;;1.67;100.00;100597.50;5043144;28;20028;-80
2022/12/08 06:54:01;;;;;;;3.28;3.17;;;;;;;1.56;100.00;100584.38;5044377;28;20111;-80
2022/12/08 06:56:28;;;;;;;2.50;2.40;;;;;;;1.54;100.00;100597.47;5061118;28;20052;-80
2022/12/08 06:58:54;;;;;;;2.05;1.95;;;;;;;1.42;100.00;100587.84;5060892;28;20059;-80
2022/12/08 07:01:21;;;;;;;2.22;2.13;;;;;;;1.47;100.00;100601.41;5060855;28;20607;-79
2022/12/08 07:03:46;;;;;;;2.38;1.95;;;;;;;1.53;100.00;100611.41;5059514;28;20040;-82
2022/12/08 07:06:20;;;;;;;1.88;1.77;;;;;;;1.73;100.00;100635.31;5045198;28;20032;-79
2022/12/08 07:08:46;;;;;;;1.70;1.60;;;;;;;1.76;100.00;100646.34;5059954;28;20436;-78
2022/12/08 07:11:11;;;;;;;1.70;1.60;;;;;;;1.61;100.00;100614.38;5060511;28;20048;-78
2022/12/08 07:13:37;;;;;;;1.70;1.60;;;;;;;1.79;100.00;100642.75;5059435;28;20056;-79
2022/12/08 07:16:10;;;;;;;1.67;1.58;;;;;;;1.77;100.00;100639.41;5059472;28;20029;-79
2022/12/08 07:18:36;;;;;;;1.38;1.27;;;;;;;1.71;100.00;100629.38;5059524;28;20029;-79
2022/12/08 07:21:10;;;;;;;1.38;1.30;;;;;;;1.67;100.00;100627.91;5042379;28;20087;-79
2022/12/08 07:23:35;;;;;;;1.60;1.50;;;;;;;1.38;100.00;100607.19;5056644;28;20877;-80
2022/12/08 07:26:03;;;;;;;1.50;1.40;;;;;;;1.47;100.00;100622.19;5059117;28;20036;-80
2022/12/08 07:28:33;;;;;;;1.60;1.50;;;;;;;1.55;100.00;100625.16;5059744;28;20419;-79
2022/12/08 07:30:58;;;;;;;1.65;1.55;;;;;;;1.45;100.00;100616.25;5065938;28;20036;-79
2022/12/08 07:33:24;;;;;;;1.42;1.35;;;;;;;1.55;100.00;100626.94;5057950;28;20021;-78
2022/12/08 07:35:57;;;;;;;1.63;1.52;;;;;;;1.44;100.00;100614.59;5058805;28;20649;-80
2022/12/08 07:38:23;;;;;;;1.40;1.33;;;;;;;1.29;100.00;100592.16;5059472;28;20033;-79
2022/12/08 07:40:50;;;;;;;1.75;1.65;;;;;;;1.37;100.00;100610.69;5057938;28;20498;-79
2022/12/08 07:43:16;;;;;;;1.73;1.63;;;;;;;1.27;100.00;100597.47;5058596;28;20079;-79
2022/12/08 07:45:42;;;;;;;2.40;2.30;;;;;;;1.40;100.00;100626.94;5040975;28;20037;-80
2022/12/08 07:48:07;;;;;;;1.98;1.88;;;;;;;1.41;100.00;100617.38;5054775;28;20573;-79
2022/12/08 07:50:33;;;;;;;2.40;2.30;;;;;;;1.52;100.00;100633.13;5023876;28;20059;-78
2022/12/08 07:52:58;;;;;;;2.88;2.67;;;;;;;1.41;100.00;100625.19;5058106;28;20079;-79
2022/12/08 07:55:24;;;;;;;2.33;2.22;;;;;;;1.24;100.00;100610.63;5057536;28;20567;-79
2022/12/08 07:57:50;;;;;;;2.20;2.10;;;;;;;1.30;100.00;100619.81;5058799;28;20035;-79
2022/12/08 08:00:16;;;;;;;2.72;2.63;;;;;;;1.36;100.00;100630.69;5041754;28;20017;-78
2022/12/08 08:02:42;;;;;;;3.25;3.03;;;;;;;1.31;100.00;100631.91;5025318;28;20049;-79
2022/12/08 08:05:07;;;;;;;2.65;2.55;;;;;;;1.33;100.00;100635.22;5058017;28;20063;-78
2022/12/08 08:07:33;;;;;;;2.75;2.65;;;;;;;1.41;100.00;100636.41;5057080;28;20041;-78
2022/12/08 08:09:59;;;;;;;2.92;2.72;;;;;;;1.30;100.00;100615.44;5059101;28;20920;-78
2022/12/08 08:12:24;;;;;;;2.55;2.45;;;;;;;1.36;100.00;100635.03;5026185;28;20103;-77
2022/12/08 08:14:50;;;;;;;2.25;2.15;;;;;;;1.31;100.00;100629.31;5065029;28;20025;-79
2022/12/08 08:17:15;;;;;;;1.80;1.70;;;;;;;1.17;100.00;100630.16;5058305;28;20029;-79
2022/12/08 08:19:40;;;;;;;4.57;4.40;;;;;;;1.21;100.00;100631.63;5059708;28;20939;-78
2022/12/08 08:22:06;;;;;;;3.40;3.22;;;;;;;1.15;100.00;100638.03;5057226;28;20039;-78
2022/12/08 08:24:31;;;;;;;2.20;2.10;;;;;;;0.97;100.00;100623.56;5047698;28;20037;-78
2022/12/08 08:26:56;;;;;;;4.28;3.22;;;;;;;0.98;100.00;100614.84;5057327;28;20115;-77
2022/12/08 08:29:22;;;;;;;2.92;2.78;;;;;;;1.20;100.00;100627.38;5040034;28;20039;-77
2022/12/08 08:31:47;;;;;;;4.38;4.18;;;;;;;1.68;100.00;100661.63;5055702;28;20033;-80
2022/12/08 08:34:13;;;;;;;4.95;4.75;;;;;;;2.01;100.00;100643.00;5055965;28;20028;-77
2022/12/08 08:36:39;;;;;;;7.25;6.97;;;;;;;2.50;100.00;100664.16;5057891;28;20049;-78
2022/12/08 08:39:04;;;;;;;7.47;7.18;;;;;;;2.74;100.00;100641.63;5059128;28;20025;-77
2022/12/08 08:41:30;;;;;;;7.57;7.22;;;;;;;2.72;100.00;100646.13;5025031;28;20029;-78
2022/12/08 08:43:56;;;;;;;2.50;2.30;;;;;;;2.54;100.00;100616.13;5055995;28;20029;-77
2022/12/08 08:46:22;;;;;;;1.60;1.50;;;;;;;2.64;100.00;100624.97;5041405;28;20025;-78
2022/12/08 08:48:47;;;;;;;0.85;0.73;;;;;;;2.70;100.00;100639.34;5025186;28;20365;-80
2022/12/08 08:51:13;;;;;;;1.80;0.93;;;;;;;2.82;100.00;100634.13;5058180;28;20033;-78
2022/12/08 08:53:39;;;;;;;0.70;0.60;;;;;;;2.81;100.00;100614.22;5057806;28;20029;-78
2022/12/08 08:56:18;;;;;;;0.93;0.90;;;;;;;3.10;100.00;100621.81;5057764;28;20021;-78
2022/12/08 08:58:45;;;;;;;2.35;1.63;;;;;;;3.17;100.00;100622.19;5072315;28;20020;-78
2022/12/08 09:01:19;;;;;;;2.22;1.67;;;;;;;3.66;100.00;100611.72;5057459;28;20035;-79
2022/12/08 09:03:46;;;;;;;9.48;1.85;;;;;;;3.97;100.00;100614.69;5041406;28;20025;-78
2022/12/08 09:06:13;;;;;;;6.38;1.30;;;;;;;4.58;100.00;100617.09;5039899;28;20028;-79
2022/12/08 09:08:39;;;;;;;1.10;0.82;;;;;;;5.13;100.00;100597.13;5057154;28;20024;-78
2022/12/08 09:11:05;;;;;;;1.75;1.00;;;;;;;5.39;100.00;100611.72;5056759;28;20476;-78
2022/12/08 09:13:31;;;;;;;1.88;1.23;;;;;;;5.80;100.00;100612.81;5057203;28;20033;-79
2022/12/08 09:15:58;;;;;;;14.07;0.88;;;;;;;6.44;100.00;100620.59;5039972;28;20028;-79
2022/12/08 09:18:24;;;;;;;0.68;0.38;;;;;;;6.37;100.00;100608.97;5056504;28;20028;-78
2022/12/08 09:20:49;;;;;;;0.60;0.47;;;;;;;6.25;100.00;100605.59;5041626;28;20032;-78
2022/12/08 09:23:14;;;;;;;0.82;0.45;;;;;;;7.34;100.00;100619.06;5058856;28;20036;-78
2022/12/08 09:25:43;;;;;;;0.65;0.52;;;;;;;9.15;100.00;100623.56;5039343;28;20116;-78
2022/12/08 09:28:09;;;;;;;0.80;0.60;;;;;;;10.95;100.00;100619.00;5057378;28;20063;-79
2022/12/08 09:30:34;;;;;;;1.33;0.73;;;;;;;12.69;100.00;100614.59;5057426;28;20060;-78
2022/12/08 09:33:00;;;;;;;4.32;0.75;;;;;;;14.14;98.22;100619.50;5057759;28;20033;-79
2022/12/08 09:35:25;;;;;;;1.30;0.50;;;;;;;15.62;85.05;100623.97;5038124;28;20685;-79
2022/12/08 09:37:50;;;;;;;0.63;0.30;;;;;;;16.82;72.48;100611.69;5056890;28;20031;-79
2022/12/08 09:40:19;;;;;;;1.05;0.50;;;;;;;17.85;64.27;100625.81;5038549;28;20032;-79
2022/12/08 09:43:25;;;;;;;2.30;0.80;;;;;;;18.20;51.98;100638.97;5055541;28;20021;-79
2022/12/08 09:45:52;;;;;;;1.27;0.40;;;;;;;17.41;51.62;100640.44;5044372;28;20041;-79
2022/12/08 09:48:22;;;;;;;1.50;0.50;;;;;;;16.27;53.90;100642.66;5057753;28;20033;-79
2022/12/08 09:50:54;;;;;;;0.20;0.20;;;;;;;15.42;60.25;100637.06;5056766;28;20056;-79
2022/12/08 09:53:29;;;;;;;0.82;0.43;;;;;;;14.85;62.62;100627.13;5056738;28;20013;-79
2022/12/08 09:56:06;;;;;;;0.30;0.30;;;;;;;15.23;64.62;100615.34;5063575;28;20016;-78
2022/12/08 09:58:49;;;;;;;0.45;0.32;;;;;;;16.93;58.07;100615.66;5055644;28;20021;-79
2022/12/08 10:01:15;;;;;;;1.33;0.40;;;;;;;18.34;52.91;100636.34;5054807;28;20082;-79
2022/12/08 10:03:41;;;;;;;4.10;1.17;;;;;;;19.63;50.76;100634.72;5057184;28;20036;-79
2022/12/08 10:06:28;;;;;;;1.13;0.68;;;;;;;20.79;47.23;100635.28;5056004;28;20051;-79
2022/12/08 10:09:12;;;;;;;2.38;0.57;;;;;;;21.54;42.91;100632.34;5063494;28;20495;-79
2022/12/08 10:11:58;;;;;;;2.40;0.40;;;;;;;20.96;41.28;100621.03;5057136;28;20017;-78
2022/12/08 10:14:35;;;;;;;1.10;0.10;;;;;;;20.87;39.98;100619.72;5055503;28;20472;-79
2022/12/08 10:17:11;;;;;;;1.55;0.70;;;;;;;19.08;40.90;100625.31;5056027;28;20082;-79
2022/12/08 10:19:40;;;;;;;2.63;0.60;;;;;;;16.77;47.34;100609.59;5063250;28;20107;-78
2022/12/08 10:22:23;;;;;;;1.20;0.50;;;;;;;16.52;45.81;100625.19;5056229;28;20033;-79
2022/12/08 10:25:06;;;;;;;2.05;0.52;;;;;;;14.76;50.86;100616.59;5063118;28;20107;-78
2022/12/08 10:27:34;;;;;;;2.40;0.50;;;;;;;15.79;54.07;100619.28;5055414;28;20047;-78
2022/12/08 10:30:00;;;;;;;1.88;0.40;;;;;;;16.15;48.53;100613.84;5057697;28;20023;-79
2022/12/08 10:32:33;;;;;;;0.90;0.50;;;;;;;16.11;53.60;100627.75;5056320;28;20032;-79
2022/12/08 10:35:06;;;;;;;0.65;0.35;;;;;;;18.35;50.73;100635.28;5056946;28;20040;-80
2022/12/08 10:37:32;;;;;;;3.13;0.63;;;;;;;18.67;46.21;100615.72;5056315;28;20103;-80
2022/12/08 10:40:19;;;;;;;0.93;0.40;;;;;;;18.91;47.05;100630.28;5055365;28;20488;-80
2022/12/08 10:42:51;;;;;;;0.82;0.40;;;;;;;19.66;46.00;100632.44;5054275;28;20029;-80
2022/12/08 10:45:28;;;;;;;1.05;0.75;;;;;;;19.57;43.34;100627.56;5052715;28;20025;-80
2022/12/08 10:47:57;;;;;;;0.80;0.40;;;;;;;19.85;44.65;100635.22;5062652;28;20017;-80
2022/12/08 10:50:32;;;;;;;0.75;0.30;;;;;;;20.22;42.88;100616.63;5057026;28;20016;-80
2022/12/08 10:53:11;;;;;;;2.22;0.43;;;;;;;20.24;41.55;100622.56;5056823;28;20471;-80
2022/12/08 10:55:41;;;;;;;0.68;0.30;;;;;;;19.83;42.49;100621.25;5059210;28;20020;-80
2022/12/08 10:58:26;;;;;;;0.28;0.28;;;;;;;19.29;42.54;100624.19;5059547;28;20035;-80
2022/12/08 11:01:19;;;;;;;0.32;0.22;;;;;;;19.51;43.12;100622.03;5057356;28;20027;-80
2022/12/08 11:03:47;;;;;;;0.20;0.10;;;;;;;19.51;42.91;100618.50;5057184;28;20506;-80
2022/12/08 11:06:29;;;;;;;2.03;0.20;;;;;;;18.54;45.91;100617.59;5060444;28;20062;-80
2022/12/08 11:08:57;;;;;;;1.85;0.30;;;;;;;17.74;46.44;100617.56;5060354;28;20108;-80
2022/12/08 11:11:38;;;;;;;0.47;0.38;;;;;;;16.62;47.95;100612.38;5058751;28;20040;-80
2022/12/08 11:14:06;;;;;;;;;;;;;;;15.91;52.63;100607.09;5060348;28;20029;-80
2022/12/08 11:16:31;;;;;;;1.40;0.43;;;;;;;15.70;54.72;100594.59;5058779;28;19908;-80
2022/12/08 11:18:57;;;;;;;0.47;0.20;;;;;;;15.55;52.83;100602.63;5043204;28;20044;-79
2022/12/08 11:21:34;;;;;;;0.57;0.32;;;;;;;14.23;56.50;100589.22;5060283;28;20032;-80
2022/12/08 11:24:20;;;;;;;0.80;0.20;;;;;;;12.97;64.85;100603.59;5059501;28;20029;-79
2022/12/08 11:27:01;;;;;;;0.65;0.60;;;;;;;12.17;68.60;100585.91;5060100;28;20020;-79
2022/12/08 11:29:29;;;;;;;0.30;0.10;;;;;;;11.68;75.94;100589.34;5067034;28;20017;-79
2022/12/08 11:32:06;;;;;;;0.40;0.17;;;;;;;11.03;79.96;100590.00;5059698;28;20025;-80
2022/12/08 11:34:42;;;;;;;2.08;0.10;;;;;;;10.45;89.53;100617.06;5058304;28;20386;-80
2022/12/08 11:37:17;;;;;;;0.17;0.17;;;;;;;10.04;90.57;100583.28;5059439;28;20045;-79
2022/12/08 11:39:48;;;;;;;0.10;0.10;;;;;;;10.09;94.46;100604.75;5058331;28;20058;-79
2022/12/08 11:42:19;;;;;;;0.25;0.20;;;;;;;9.82;96.83;100589.88;5059324;28;20032;-80